Time;durP1;ratioP1;P1;durP2;ratioP2;P2;SDS_P1;SDS_P2;PMS_P1;PMS_P2;Temp;Humidity;BMP_temperature;BMP_pressure;BME280_temperature;BME280_humidity;BME280_pressure;Samples;Min_cycle;Max_cycle;Signal;HPM_P1;HPM_P2
2022/12/11 00:01:52;;;;;;;34.67;18.77;;;;;;;;;;5055100;28;20617;-78
2022/12/11 00:04:56;;;;;;;36.20;20.00;;;;;;;;;;5055137;28;20538;-78
2022/12/11 00:08:00;;;;;;;34.40;19.83;;;;;;;;;;5054891;28;20542;-78
2022/12/11 00:11:07;;;;;;;35.27;19.07;;;;;;;;;;5066831;28;20949;-78
2022/12/11 00:14:12;;;;;;;34.80;19.20;;;;;;;;;;5066623;28;20889;-78
2022/12/11 00:17:16;;;;;;;37.47;19.47;;;;;;;;;;5066875;28;20905;-78
2022/12/11 00:20:20;;;;;;;33.67;19.53;;;;;;;;;;5055548;28;20594;-78
2022/12/11 00:23:24;;;;;;;33.67;19.53;;;;;;;;;;5066521;28;20609;-78
2022/12/11 00:26:28;;;;;;;36.20;19.30;;;;;;;;;;5054821;28;20903;-78
2022/12/11 00:29:32;;;;;;;32.27;18.83;;;;;;;;;;5054837;28;20545;-78
2022/12/11 00:32:36;;;;;;;33.23;18.30;;;;;;;;;;5053893;28;20636;-78
2022/12/11 00:35:45;;;;;;;31.73;17.03;;;;;;;;;;5065717;28;20604;-78
2022/12/11 00:38:50;;;;;;;32.23;17.73;;;;;;;;;;5042650;28;20964;-78
2022/12/11 00:41:55;;;;;;;35.07;17.60;;;;;;;;;;5077538;28;20629;-78
2022/12/11 00:44:59;;;;;;;32.47;18.00;;;;;;;;;;5065185;28;20551;-77
2022/12/11 00:48:04;;;;;;;31.40;18.20;;;;;;;;;;5053474;28;20545;-77
2022/12/11 00:51:09;;;;;;;31.80;17.33;;;;;;;;;;5076506;28;20620;-78
2022/12/11 00:54:13;;;;;;;31.77;17.33;;;;;;;;;;5064470;28;20604;-77
2022/12/11 00:57:17;;;;;;;29.90;16.37;;;;;;;;;;5052893;28;20549;-77
2022/12/11 01:00:21;;;;;;;30.67;17.90;;;;;;;;;;5063522;28;20537;-77
2022/12/11 01:03:25;;;;;;;27.57;16.47;;;;;;;;;;5063926;28;20900;-77
2022/12/11 01:06:30;;;;;;;29.37;16.70;;;;;;;;;;5052079;28;20561;-77
2022/12/11 01:12:58;;;;;;;28.27;16.97;;;;;;;;;;5063091;28;20629;-77
2022/12/11 01:16:11;;;;;;;28.33;15.93;;;;;;;;;;5074997;28;20604;-76
2022/12/11 01:19:16;;;;;;;30.90;17.90;;;;;;;;;;5075799;28;20672;-77
2022/12/11 01:22:20;;;;;;;32.23;17.53;;;;;;;;;;5074639;28;20999;-76
2022/12/11 01:25:26;;;;;;;29.10;17.00;;;;;;;;;;5063376;28;20572;-76
2022/12/11 01:28:30;;;;;;;27.00;15.87;;;;;;;;;;5051831;28;20888;-76
2022/12/11 01:31:34;;;;;;;26.37;15.63;;;;;;;;;;5051718;28;20636;-76
2022/12/11 01:34:38;;;;;;;28.10;16.20;;;;;;;;;;5063005;28;20545;-76
2022/12/11 01:37:42;;;;;;;26.83;15.07;;;;;;;;;;5063043;28;20545;-76
2022/12/11 01:40:48;;;;;;;28.00;15.50;;;;;;;;;;5075176;28;20881;-76
2022/12/11 01:43:56;;;;;;;22.47;12.90;;;;;;;;;;5075246;28;21106;-75
2022/12/11 01:47:01;;;;;;;12.83;7.57;;;;;;;;;;5075015;28;20538;-75
2022/12/11 01:50:05;;;;;;;11.50;7.33;;;;;;;;;;5074500;28;20550;-75
2022/12/11 01:53:15;;;;;;;9.50;6.17;;;;;;;;;;5051299;28;20538;-75
2022/12/11 01:56:19;;;;;;;10.07;6.43;;;;;;;;;;5062144;28;20609;-75
2022/12/11 01:59:27;;;;;;;10.20;6.70;;;;;;;;;;5074645;28;20593;-75
2022/12/11 02:02:32;;;;;;;11.67;7.27;;;;;;;;;;5050778;28;20630;-75
2022/12/11 02:05:37;;;;;;;11.83;7.30;;;;;;;;;;5074827;28;20890;-75
2022/12/11 02:08:41;;;;;;;13.13;8.27;;;;;;;;;;5074632;28;20538;-75
2022/12/11 02:11:48;;;;;;;12.50;7.87;;;;;;;;;;5062034;28;20641;-75
2022/12/11 02:15:18;;;;;;;16.43;8.60;;;;;;;;;;5039245;28;21183;-75
2022/12/11 02:18:34;;;;;;;15.43;9.93;;;;;;;;;;5062023;28;21044;-75
2022/12/11 02:21:42;;;;;;;18.87;11.63;;;;;;;;;;5074074;28;20621;-75
2022/12/11 02:24:46;;;;;;;21.43;12.73;;;;;;;;;;5073343;28;20556;-75
2022/12/11 02:28:03;;;;;;;23.73;14.17;;;;;;;;;;5061684;28;20553;-75
2022/12/11 02:31:38;;;;;;;21.63;13.73;;;;;;;;;;5070747;28;20644;-75
2022/12/11 02:34:50;;;;;;;21.03;13.80;;;;;;;;;;5070365;28;20540;-75
2022/12/11 02:37:59;;;;;;;21.67;13.53;;;;;;;;;;5082192;28;20544;-74
2022/12/11 02:41:04;;;;;;;21.63;14.10;;;;;;;;;;5094027;28;20636;-74
2022/12/11 02:44:12;;;;;;;20.40;13.10;;;;;;;;;;5094050;28;20533;-75
2022/12/11 02:47:18;;;;;;;19.83;12.63;;;;;;;;;;5069989;28;20540;-75
2022/12/11 02:50:24;;;;;;;21.07;13.70;;;;;;;;;;5081345;28;21117;-75
2022/12/11 02:53:30;;;;;;;19.63;11.83;;;;;;;;;;5093608;28;20540;-74
2022/12/11 02:56:43;;;;;;;20.43;12.17;;;;;;;;;;5093478;28;20975;-74
2022/12/11 02:59:47;;;;;;;19.93;11.60;;;;;;;;;;5093769;28;20663;-74
2022/12/11 03:02:51;;;;;;;18.33;12.57;;;;;;;;;;5080990;28;20620;-74
2022/12/11 03:05:55;;;;;;;18.27;12.07;;;;;;;;;;5093596;28;20545;-75
2022/12/11 03:08:59;;;;;;;18.03;11.33;;;;;;;;;;5081248;28;20544;-75
2022/12/11 03:12:06;;;;;;;18.47;11.83;;;;;;;;;;5093480;28;20631;-75
2022/12/11 03:15:14;;;;;;;16.90;12.07;;;;;;;;;;5081079;28;20545;-75
2022/12/11 03:18:29;;;;;;;16.97;11.47;;;;;;;;;;5093199;28;21078;-75
2022/12/11 03:21:42;;;;;;;17.03;10.40;;;;;;;;;;5081287;28;20628;-74
2022/12/11 03:24:54;;;;;;;17.70;11.27;;;;;;;;;;5093510;28;20544;-75
2022/12/11 03:28:08;;;;;;;16.77;11.30;;;;;;;;;;5080682;28;20553;-75
2022/12/11 03:31:32;;;;;;;15.80;10.07;;;;;;;;;;5069136;28;20623;-75
2022/12/11 03:34:45;;;;;;;15.93;10.63;;;;;;;;;;5080580;28;20908;-75
2022/12/11 03:37:52;;;;;;;15.70;11.10;;;;;;;;;;5093294;28;20600;-75
2022/12/11 03:40:59;;;;;;;16.57;9.90;;;;;;;;;;5080635;28;21019;-74
2022/12/11 03:44:03;;;;;;;16.03;10.67;;;;;;;;;;5093179;28;20877;-74
2022/12/11 03:47:09;;;;;;;15.27;10.30;;;;;;;;;;5080500;28;20544;-74
2022/12/11 03:50:16;;;;;;;14.93;9.67;;;;;;;;;;5092925;28;20549;-75
2022/12/11 03:53:20;;;;;;;17.13;10.50;;;;;;;;;;5092868;28;20542;-75
2022/12/11 03:56:26;;;;;;;15.27;9.53;;;;;;;;;;5080876;28;20979;-74
2022/12/11 03:59:30;;;;;;;16.30;10.37;;;;;;;;;;5093105;28;20589;-74
2022/12/11 04:02:34;;;;;;;15.97;9.57;;;;;;;;;;5080180;28;20635;-74
2022/12/11 04:05:44;;;;;;;13.57;9.10;;;;;;;;;;5092923;28;20562;-74
2022/12/11 04:08:49;;;;;;;12.67;9.17;;;;;;;;;;5080544;28;20537;-73
2022/12/11 04:11:53;;;;;;;18.67;10.43;;;;;;;;;;5080292;28;20625;-73
2022/12/11 04:15:00;;;;;;;17.37;10.03;;;;;;;;;;5092622;28;20603;-74
2022/12/11 04:24:51;;;;;;;17.37;10.40;;;;;;;;;;5080348;28;20568;-73
2022/12/11 04:27:55;;;;;;;21.40;11.83;;;;;;;;;;5080043;28;20575;-73
2022/12/11 04:31:00;;;;;;;19.30;11.97;;;;;;;;;;5083532;28;20631;-73
2022/12/11 04:34:04;;;;;;;18.93;11.60;;;;;;;;;;5083589;28;20605;-74
2022/12/11 04:37:08;;;;;;;19.40;11.30;;;;;;;;;;5096382;28;20904;-74
2022/12/11 04:40:15;;;;;;;21.47;11.50;;;;;;;;;;5096179;28;20671;-74
2022/12/11 04:43:19;;;;;;;19.13;11.10;;;;;;;;;;5083695;28;20540;-74
2022/12/11 04:46:23;;;;;;;19.93;11.90;;;;;;;;;;5096199;28;20548;-74
2022/12/11 04:49:28;;;;;;;19.63;11.80;;;;;;;;;;5083581;28;21124;-74
2022/12/11 04:52:32;;;;;;;20.60;12.43;;;;;;;;;;5083701;28;21005;-74
2022/12/11 04:55:38;;;;;;;18.77;11.37;;;;;;;;;;5095756;28;20615;-74
2022/12/11 04:58:43;;;;;;;18.00;11.73;;;;;;;;;;5095810;28;20600;-74
2022/12/11 05:01:47;;;;;;;18.10;11.07;;;;;;;;;;5083206;28;20627;-75
2022/12/11 05:04:51;;;;;;;18.63;11.00;;;;;;;;;;5095697;28;20552;-74
2022/12/11 05:07:56;;;;;;;15.50;10.33;;;;;;;;;;5072197;28;20556;-75
2022/12/11 05:11:02;;;;;;;18.23;11.63;;;;;;;;;;5095887;28;20620;-75
2022/12/11 05:14:07;;;;;;;17.97;11.03;;;;;;;;;;5095891;28;20544;-74
2022/12/11 05:17:10;;;;;;;17.70;11.17;;;;;;;;;;5095751;28;20548;-75
2022/12/11 05:20:15;;;;;;;19.37;11.20;;;;;;;;;;5083162;28;20642;-75
2022/12/11 05:23:19;;;;;;;18.67;11.83;;;;;;;;;;5083351;28;20548;-74
2022/12/11 05:26:23;;;;;;;17.17;10.57;;;;;;;;;;5095825;28;20579;-74
2022/12/11 05:29:28;;;;;;;17.73;11.20;;;;;;;;;;5071838;28;20900;-74
2022/12/11 05:32:32;;;;;;;19.43;11.50;;;;;;;;;;5072050;28;21192;-75
2022/12/11 05:35:36;;;;;;;18.43;11.33;;;;;;;;;;5098547;28;20549;-74
2022/12/11 05:38:40;;;;;;;18.13;11.60;;;;;;;;;;5086388;28;20548;-74
2022/12/11 05:41:45;;;;;;;20.03;11.23;;;;;;;;;;5085525;28;20620;-74
2022/12/11 05:44:49;;;;;;;19.57;11.43;;;;;;;;;;5098824;28;20540;-74
2022/12/11 05:47:53;;;;;;;19.47;11.77;;;;;;;;;;5085316;28;20549;-74
2022/12/11 05:50:58;;;;;;;19.40;12.30;;;;;;;;;;5084844;28;20640;-74
2022/12/11 05:54:04;;;;;;;20.40;11.20;;;;;;;;;;5085059;28;20611;-74
2022/12/11 05:57:08;;;;;;;21.27;11.23;;;;;;;;;;5084298;28;20604;-74
2022/12/11 06:00:12;;;;;;;18.20;11.33;;;;;;;;;;5083764;28;20599;-74
2022/12/11 06:03:16;;;;;;;19.10;11.33;;;;;;;;;;5083614;28;20549;-74
2022/12/11 06:06:21;;;;;;;19.83;12.20;;;;;;;;;;5083495;28;20548;-75
2022/12/11 06:09:25;;;;;;;19.37;11.37;;;;;;;;;;5096158;28;20548;-74
2022/12/11 06:12:30;;;;;;;18.37;11.67;;;;;;;;;;5082632;28;20619;-75
2022/12/11 06:15:34;;;;;;;20.63;11.90;;;;;;;;;;5082755;28;20536;-74
2022/12/11 06:18:41;;;;;;;19.57;11.13;;;;;;;;;;5082725;28;20540;-74
2022/12/11 06:21:47;;;;;;;19.00;11.57;;;;;;;;;;5082500;28;20667;-74
2022/12/11 06:24:51;;;;;;;20.20;11.77;;;;;;;;;;5094654;28;20608;-75
2022/12/11 06:27:55;;;;;;;21.10;11.80;;;;;;;;;;5082236;28;20552;-74
2022/12/11 06:31:00;;;;;;;20.43;11.90;;;;;;;;;;5082465;28;20624;-74
2022/12/11 06:34:04;;;;;;;20.33;11.60;;;;;;;;;;5094585;28;20623;-74
2022/12/11 06:37:08;;;;;;;24.83;13.63;;;;;;;;;;5094077;28;20552;-74
2022/12/11 06:40:12;;;;;;;20.77;12.70;;;;;;;;;;5094105;28;20660;-74
2022/12/11 06:43:16;;;;;;;21.80;12.43;;;;;;;;;;5081645;28;20722;-74
2022/12/11 06:46:21;;;;;;;21.27;12.17;;;;;;;;;;5094317;28;20548;-74
2022/12/11 06:49:25;;;;;;;22.37;12.73;;;;;;;;;;5081461;28;20548;-75
2022/12/11 06:52:29;;;;;;;25.23;14.50;;;;;;;;;;5080791;28;20624;-75
2022/12/11 06:55:34;;;;;;;25.63;13.43;;;;;;;;;;5081483;28;21196;-75
2022/12/11 06:58:40;;;;;;;24.20;14.20;;;;;;;;;;5069766;28;20544;-75
2022/12/11 07:01:45;;;;;;;22.53;13.70;;;;;;;;;;5093839;28;20664;-75
2022/12/11 07:04:49;;;;;;;21.73;12.80;;;;;;;;;;5069702;28;20560;-74
2022/12/11 07:07:53;;;;;;;24.97;13.97;;;;;;;;;;5069875;28;20603;-75
2022/12/11 07:11:06;;;;;;;23.50;14.10;;;;;;;;;;5093818;28;21216;-75
2022/12/11 07:14:10;;;;;;;21.27;12.43;;;;;;;;;;5058365;28;20552;-74
2022/12/11 07:17:15;;;;;;;22.17;12.77;;;;;;;;;;5081183;28;20544;-73
2022/12/11 07:20:19;;;;;;;20.77;12.13;;;;;;;;;;5081124;28;21007;-74
2022/12/11 07:23:23;;;;;;;22.23;12.07;;;;;;;;;;5081402;28;20607;-74
2022/12/11 07:26:28;;;;;;;20.37;12.20;;;;;;;;;;5093568;28;20552;-74
2022/12/11 07:29:32;;;;;;;25.87;13.60;;;;;;;;;;5081215;28;20548;-75
2022/12/11 07:32:35;;;;;;;19.83;12.00;;;;;;;;;;5093308;28;20622;-74
2022/12/11 07:35:39;;;;;;;23.90;13.00;;;;;;;;;;5080832;28;20608;-75
2022/12/11 07:38:43;;;;;;;20.13;12.20;;;;;;;;;;5093397;28;20607;-75
2022/12/11 07:41:47;;;;;;;21.17;12.53;;;;;;;;;;5080683;28;20667;-75
2022/12/11 07:44:53;;;;;;;28.33;13.93;;;;;;;;;;5081185;28;20545;-75
2022/12/11 07:47:57;;;;;;;22.93;13.17;;;;;;;;;;5093650;28;20564;-74
2022/12/11 07:51:09;;;;;;;27.20;14.47;;;;;;;;;;5093308;28;20624;-74
2022/12/11 07:54:15;;;;;;;23.77;13.00;;;;;;;;;;5093154;28;20951;-74
2022/12/11 07:57:19;;;;;;;23.07;13.90;;;;;;;;;;5080243;28;20552;-74
2022/12/11 08:00:23;;;;;;;23.43;13.13;;;;;;;;;;5069387;28;20616;-74
2022/12/11 08:03:27;;;;;;;21.90;12.77;;;;;;;;;;5093406;28;20553;-74
2022/12/11 08:06:34;;;;;;;23.07;13.50;;;;;;;;;;5084763;28;20919;-74
2022/12/11 08:09:38;;;;;;;22.00;12.80;;;;;;;;;;5097592;28;20548;-73
2022/12/11 08:12:43;;;;;;;19.87;11.80;;;;;;;;;;5096974;28;20974;-74
2022/12/11 08:15:47;;;;;;;23.67;13.47;;;;;;;;;;5097066;28;20603;-74
2022/12/11 08:18:51;;;;;;;23.47;12.93;;;;;;;;;;5072757;28;20607;-74
2022/12/11 08:21:56;;;;;;;20.97;12.87;;;;;;;;;;5084200;28;20674;-74
2022/12/11 08:25:00;;;;;;;25.40;13.50;;;;;;;;;;5084471;28;20623;-74
2022/12/11 08:28:05;;;;;;;23.97;13.10;;;;;;;;;;5096769;28;20599;-74
2022/12/11 08:31:11;;;;;;;27.67;15.90;;;;;;;;;;5084495;28;20623;-75
2022/12/11 08:34:15;;;;;;;26.73;16.17;;;;;;;;;;5084388;28;20548;-74
2022/12/11 08:37:19;;;;;;;28.93;17.57;;;;;;;;;;5073184;28;20548;-74
2022/12/11 08:40:23;;;;;;;28.37;15.10;;;;;;;;;;5096676;28;20556;-74
2022/12/11 08:43:28;;;;;;;25.57;14.20;;;;;;;;;;5084110;28;21081;-74
2022/12/11 08:46:32;;;;;;;24.83;15.23;;;;;;;;;;5084099;28;20544;-74
2022/12/11 08:49:36;;;;;;;25.57;15.87;;;;;;;;;;5096271;28;20544;-74
2022/12/11 08:52:40;;;;;;;24.73;14.20;;;;;;;;;;5083566;28;20619;-74
2022/12/11 08:55:45;;;;;;;22.63;14.83;;;;;;;;;;5095964;28;20611;-75
2022/12/11 08:58:50;;;;;;;22.77;14.00;;;;;;;;;;5096383;28;20540;-74
2022/12/11 09:01:55;;;;;;;22.37;13.97;;;;;;;;;;5083523;28;20663;-74
2022/12/11 09:04:59;;;;;;;21.57;13.60;;;;;;;;;;5071911;28;21184;-75
2022/12/11 09:08:03;;;;;;;22.43;12.40;;;;;;;;;;5083741;28;20540;-75
2022/12/11 09:11:09;;;;;;;22.83;12.57;;;;;;;;;;5083502;28;20610;-75
2022/12/11 09:14:15;;;;;;;21.90;13.60;;;;;;;;;;5096365;28;20544;-75
2022/12/11 09:17:19;;;;;;;21.93;13.73;;;;;;;;;;5095106;28;20584;-74
2022/12/11 09:20:23;;;;;;;21.27;13.57;;;;;;;;;;5095835;28;20552;-75
2022/12/11 09:23:27;;;;;;;24.07;13.77;;;;;;;;;;5083755;28;20540;-75
2022/12/11 09:26:32;;;;;;;22.53;14.23;;;;;;;;;;5095640;28;20556;-75
2022/12/11 09:29:38;;;;;;;23.47;15.03;;;;;;;;;;5083047;28;20544;-75
2022/12/11 09:32:41;;;;;;;33.63;18.37;;;;;;;;;;5095293;28;20631;-75
2022/12/11 09:35:56;;;;;;;37.73;19.87;;;;;;;;;;5095435;28;20564;-75
2022/12/11 09:39:02;;;;;;;30.70;17.67;;;;;;;;;;5083337;28;20600;-75
2022/12/11 09:42:28;;;;;;;26.87;19.93;;;;;;;;;;5071114;28;20723;-75
2022/12/11 09:45:32;;;;;;;23.53;13.37;;;;;;;;;;5082817;28;20537;-76
2022/12/11 09:48:40;;;;;;;24.67;14.80;;;;;;;;;;5083007;28;20544;-75
2022/12/11 09:52:15;;;;;;;21.57;12.30;;;;;;;;;;5082389;28;20627;-75
2022/12/11 09:55:24;;;;;;;21.87;12.70;;;;;;;;;;5070932;28;21197;-75
2022/12/11 09:58:54;;;;;;;16.77;10.87;;;;;;;;;;5082557;28;20599;-74
2022/12/11 10:02:17;;;;;;;19.43;11.90;;;;;;;;;;5094596;28;20667;-75
2022/12/11 10:05:27;;;;;;;16.33;11.57;;;;;;;;;;5082106;28;20560;-74
2022/12/11 10:08:46;;;;;;;16.43;11.20;;;;;;;;;;5094770;28;20865;-74
2022/12/11 10:12:05;;;;;;;16.70;10.23;;;;;;;;;;5094604;28;20628;-74
2022/12/11 10:15:48;;;;;;;14.70;9.63;;;;;;;;;;5082117;28;20877;-75
2022/12/11 10:18:53;;;;;;;17.90;12.20;;;;;;;;;;4975204;28;20570;-75
2022/12/11 10:21:59;;;;;;;32.80;23.40;;;;;;;;;;5094140;28;20648;-74
2022/12/11 10:25:12;;;;;;;26.70;20.90;;;;;;;;;;5094446;28;21079;-74
2022/12/11 10:28:19;;;;;;;24.13;18.67;;;;;;;;;;5081856;28;20545;-74
2022/12/11 10:32:04;;;;;;;64.10;47.30;;;;;;;;;;5094165;28;20960;-74
2022/12/11 10:35:17;;;;;;;35.67;23.67;;;;;;;;;;4997579;28;21274;-74
2022/12/11 10:38:37;;;;;;;23.83;17.70;;;;;;;;;;5094737;28;20541;-75
2022/12/11 10:41:43;;;;;;;14.33;10.70;;;;;;;;;;5070152;28;20644;-74
2022/12/11 10:45:18;;;;;;;18.87;13.63;;;;;;;;;;5081875;28;20537;-74
2022/12/11 10:48:22;;;;;;;15.97;9.63;;;;;;;;;;5094211;28;20541;-74
2022/12/11 10:51:29;;;;;;;13.27;8.27;;;;;;;;;;5093903;28;20956;-74
2022/12/11 10:54:41;;;;;;;11.67;8.13;;;;;;;;;;5069993;28;20884;-74
2022/12/11 10:57:54;;;;;;;11.90;7.63;;;;;;;;;;5093779;28;20549;-74
2022/12/11 11:01:04;;;;;;;13.07;8.27;;;;;;;;;;5093480;28;20976;-74
2022/12/11 11:04:22;;;;;;;10.73;8.07;;;;;;;;;;5081150;28;20600;-74
2022/12/11 11:07:29;;;;;;;14.07;8.87;;;;;;;;;;5081276;28;20549;-74
2022/12/11 11:10:35;;;;;;;12.23;8.40;;;;;;;;;;5093815;28;20542;-74
2022/12/11 11:13:39;;;;;;;12.40;8.43;;;;;;;;;;5081204;28;20593;-75
2022/12/11 11:16:46;;;;;;;13.53;8.90;;;;;;;;;;5093599;28;20545;-74
2022/12/11 11:19:50;;;;;;;14.30;9.67;;;;;;;;;;5069725;28;20600;-75
2022/12/11 11:22:59;;;;;;;14.03;8.73;;;;;;;;;;5057619;28;20656;-75
2022/12/11 11:26:06;;;;;;;13.77;8.90;;;;;;;;;;5093374;28;20553;-75
2022/12/11 11:29:33;;;;;;;14.43;8.90;;;;;;;;;;5080828;28;20873;-75
2022/12/11 11:32:38;;;;;;;18.27;10.43;;;;;;;;;;5069085;28;20613;-74
2022/12/11 11:35:56;;;;;;;15.17;9.20;;;;;;;;;;5093200;28;20546;-74
2022/12/11 11:39:16;;;;;;;12.03;8.13;;;;;;;;;;5094083;28;20874;-74
2022/12/11 11:42:44;;;;;;;13.77;8.33;;;;;;;;;;5097313;28;21228;-74
2022/12/11 11:46:04;;;;;;;14.83;8.77;;;;;;;;;;5085169;28;20541;-74
2022/12/11 11:49:15;;;;;;;14.00;9.60;;;;;;;;;;5097907;28;20549;-75
2022/12/11 11:53:08;;;;;;;13.67;8.77;;;;;;;;;;5084685;28;20616;-75
2022/12/11 11:56:33;;;;;;;12.60;7.60;;;;;;;;;;5067313;28;21178;-75
2022/12/11 11:59:46;;;;;;;12.83;8.87;;;;;;;;;;5097176;28;20547;-74
2022/12/11 12:02:54;;;;;;;25.47;17.17;;;;;;;;;;5096761;28;21234;-74
2022/12/11 12:06:08;;;;;;;29.17;19.73;;;;;;;;;;5084757;28;20571;-75
2022/12/11 12:09:44;;;;;;;18.00;11.97;;;;;;;;;;5084144;28;20537;-75
2022/12/11 12:13:13;;;;;;;12.13;7.97;;;;;;;;;;5097070;28;21017;-74
2022/12/11 12:16:27;;;;;;;11.10;7.73;;;;;;;;;;5084153;28;20533;-74
2022/12/11 12:19:37;;;;;;;11.30;7.90;;;;;;;;;;5096727;28;21080;-75
2022/12/11 12:23:05;;;;;;;11.17;8.40;;;;;;;;;;5084461;28;20652;-75
2022/12/11 12:26:14;;;;;;;12.10;7.77;;;;;;;;;;5084799;28;20553;-74
2022/12/11 12:29:52;;;;;;;13.87;8.10;;;;;;;;;;5096983;28;20671;-74
2022/12/11 12:33:39;;;;;;;12.13;7.90;;;;;;;;;;5084466;28;20723;-74
2022/12/11 12:36:52;;;;;;;13.00;8.20;;;;;;;;;;5084315;28;20553;-74
2022/12/11 12:40:14;;;;;;;13.10;8.47;;;;;;;;;;5099710;28;20592;-74
2022/12/11 12:43:36;;;;;;;12.23;8.43;;;;;;;;;;5087652;28;20589;-74
2022/12/11 12:46:59;;;;;;;12.57;8.73;;;;;;;;;;5087974;28;20537;-74
2022/12/11 12:50:09;;;;;;;14.87;8.93;;;;;;;;;;5099581;28;20541;-75
2022/12/11 12:53:35;;;;;;;11.93;9.10;;;;;;;;;;5087815;28;20592;-75
2022/12/11 12:56:42;;;;;;;14.97;8.17;;;;;;;;;;5099350;28;20581;-74
2022/12/11 12:59:54;;;;;;;12.73;8.63;;;;;;;;;;5099694;28;20537;-75
2022/12/11 13:03:11;;;;;;;12.67;8.77;;;;;;;;;;5085886;28;20649;-75
2022/12/11 13:06:28;;;;;;;12.63;8.60;;;;;;;;;;5074841;28;20580;-75
2022/12/11 13:09:33;;;;;;;11.73;8.33;;;;;;;;;;5098582;28;20600;-74
2022/12/11 13:12:44;;;;;;;11.50;8.10;;;;;;;;;;5097553;28;20960;-75
2022/12/11 13:15:48;;;;;;;11.17;6.90;;;;;;;;;;5097954;28;20593;-75
2022/12/11 13:18:55;;;;;;;7.33;4.90;;;;;;;;;;5084851;28;21162;-75
2022/12/11 13:22:05;;;;;;;9.90;4.47;;;;;;;;;;5096715;28;20644;-75
2022/12/11 13:25:46;;;;;;;8.33;4.27;;;;;;;;;;5061584;28;20541;-75
2022/12/11 13:28:51;;;;;;;5.43;4.10;;;;;;;;;;5092116;28;20948;-74
2022/12/11 13:32:18;;;;;;;7.13;4.53;;;;;;;;;;5096577;28;20963;-74
2022/12/11 13:35:22;;;;;;;10.03;4.73;;;;;;;;;;5084000;28;20569;-74
2022/12/11 13:38:27;;;;;;;15.20;5.37;;;;;;;;;;5096319;28;20545;-74
2022/12/11 13:41:35;;;;;;;10.00;5.63;;;;;;;;;;5095804;28;20625;-75
2022/12/11 13:44:41;;;;;;;13.93;8.47;;;;;;;;;;5083346;28;20585;-74
2022/12/11 13:47:46;;;;;;;9.37;6.27;;;;;;;;;;5083666;28;20533;-75
2022/12/11 13:50:52;;;;;;;13.00;7.07;;;;;;;;;;5071500;28;20545;-74
2022/12/11 13:54:05;;;;;;;9.43;5.73;;;;;;;;;;5095942;28;20541;-74
2022/12/11 13:57:24;;;;;;;7.00;3.53;;;;;;;;;;5082667;28;20936;-74
2022/12/11 14:00:31;;;;;;;4.87;3.40;;;;;;;;;;5095755;28;20546;-74
2022/12/11 14:03:39;;;;;;;13.70;7.53;;;;;;;;;;5070840;28;20593;-74
2022/12/11 14:06:43;;;;;;;7.87;4.50;;;;;;;;;;5082327;28;20549;-74
2022/12/11 14:09:48;;;;;;;7.80;5.37;;;;;;;;;;5095216;28;20541;-75
2022/12/11 14:12:58;;;;;;;8.83;6.03;;;;;;;;;;5082353;28;20616;-74
2022/12/11 14:16:02;;;;;;;8.77;5.30;;;;;;;;;;5082556;28;20545;-74
2022/12/11 14:19:08;;;;;;;11.33;7.40;;;;;;;;;;5082915;28;20541;-75
2022/12/11 14:22:21;;;;;;;14.90;10.80;;;;;;;;;;5082074;28;20621;-75
2022/12/11 14:25:26;;;;;;;20.70;12.60;;;;;;;;;;5082254;28;20560;-74
2022/12/11 14:28:40;;;;;;;20.77;12.10;;;;;;;;;;5070806;28;20904;-73
2022/12/11 14:31:44;;;;;;;13.00;9.17;;;;;;;;;;5082221;28;20624;-74
2022/12/11 14:34:49;;;;;;;15.20;9.60;;;;;;;;;;5094558;28;20530;-75
2022/12/11 14:37:53;;;;;;;11.43;7.77;;;;;;;;;;5081848;28;20545;-74
2022/12/11 14:41:15;;;;;;;10.43;6.10;;;;;;;;;;5082031;28;20609;-74
2022/12/11 14:44:24;;;;;;;8.17;5.50;;;;;;;;;;5081800;28;20589;-75
2022/12/11 14:47:35;;;;;;;14.27;7.07;;;;;;;;;;5081957;28;21095;-76
2022/12/11 14:50:47;;;;;;;24.30;10.57;;;;;;;;;;5094055;28;20558;-76
2022/12/11 14:53:53;;;;;;;17.40;9.50;;;;;;;;;;5082418;28;20548;-77
2022/12/11 14:56:59;;;;;;;11.77;7.17;;;;;;;;;;5070511;28;20546;-77
2022/12/11 15:00:04;;;;;;;11.60;7.20;;;;;;;;;;5094832;28;20546;-76
2022/12/11 15:03:11;;;;;;;9.53;6.07;;;;;;;;;;5094119;28;20589;-77
2022/12/11 15:06:24;;;;;;;11.67;6.77;;;;;;;;;;5070035;28;20870;-76
2022/12/11 15:09:42;;;;;;;28.67;14.17;;;;;;;;;;5081607;28;20619;-76
2022/12/11 15:12:46;;;;;;;13.03;7.10;;;;;;;;;;5081503;28;20623;-76
2022/12/11 15:15:51;;;;;;;18.43;11.77;;;;;;;;;;5081168;28;20595;-76
2022/12/11 15:18:57;;;;;;;19.43;11.27;;;;;;;;;;5093939;28;20611;-75
2022/12/11 15:22:08;;;;;;;20.27;13.20;;;;;;;;;;5093678;28;20643;-77
2022/12/11 15:25:28;;;;;;;49.43;28.33;;;;;;;;;;5081607;28;20541;-74
2022/12/11 15:28:34;;;;;;;12.97;7.57;;;;;;;;;;5093863;28;20544;-74
2022/12/11 15:31:39;;;;;;;19.73;14.80;;;;;;;;;;5093559;28;20620;-75
2022/12/11 15:34:44;;;;;;;11.60;7.60;;;;;;;;;;5080947;28;20611;-74
2022/12/11 15:37:53;;;;;;;15.30;10.63;;;;;;;;;;5069786;28;20529;-74
2022/12/11 15:40:58;;;;;;;17.43;11.60;;;;;;;;;;5080927;28;20635;-73
2022/12/11 15:44:03;;;;;;;41.70;25.03;;;;;;;;;;5057720;28;20616;-73
2022/12/11 15:47:14;;;;;;;31.40;17.57;;;;;;;;;;5093165;28;20608;-74
2022/12/11 15:50:21;;;;;;;46.23;23.80;;;;;;;;;;5081209;28;20548;-74
2022/12/11 15:53:25;;;;;;;139.73;78.90;;;;;;;;;;5081412;28;20595;-74
2022/12/11 15:56:29;;;;;;;85.50;53.30;;;;;;;;;;5080577;28;20607;-74
2022/12/11 15:59:33;;;;;;;30.57;19.17;;;;;;;;;;5081077;28;20544;-74
2022/12/11 16:02:37;;;;;;;23.63;17.37;;;;;;;;;;5093383;28;20639;-75
2022/12/11 16:05:41;;;;;;;14.57;9.40;;;;;;;;;;5093175;28;20611;-75
2022/12/11 16:08:46;;;;;;;14.13;9.33;;;;;;;;;;5080746;28;20682;-75
2022/12/11 16:11:50;;;;;;;11.90;7.23;;;;;;;;;;5092954;28;20629;-74
2022/12/11 16:14:54;;;;;;;12.50;7.77;;;;;;;;;;5093563;28;20537;-74
2022/12/11 16:18:01;;;;;;;11.63;7.83;;;;;;;;;;5093396;28;20538;-74
2022/12/11 16:21:06;;;;;;;12.00;7.57;;;;;;;;;;5092951;28;20953;-74
2022/12/11 16:24:10;;;;;;;13.60;7.73;;;;;;;;;;5093192;28;20601;-74
2022/12/11 16:27:14;;;;;;;12.77;8.00;;;;;;;;;;5084581;28;20600;-74
2022/12/11 16:30:18;;;;;;;12.10;7.73;;;;;;;;;;5073094;28;20600;-74
2022/12/11 16:33:22;;;;;;;14.17;10.00;;;;;;;;;;5084190;28;20533;-73
2022/12/11 16:36:26;;;;;;;13.67;7.93;;;;;;;;;;5096972;28;20595;-74
2022/12/11 16:39:30;;;;;;;19.03;10.33;;;;;;;;;;5096615;28;20543;-74
2022/12/11 16:42:34;;;;;;;15.97;10.53;;;;;;;;;;5084146;28;20631;-74
2022/12/11 16:45:38;;;;;;;18.97;10.97;;;;;;;;;;5096550;28;20595;-74
2022/12/11 16:48:43;;;;;;;18.43;11.37;;;;;;;;;;5096490;28;20544;-74
2022/12/11 16:51:50;;;;;;;19.50;12.47;;;;;;;;;;5072224;28;21208;-74
2022/12/11 16:54:55;;;;;;;16.37;11.20;;;;;;;;;;5096069;28;21196;-74
2022/12/11 16:58:00;;;;;;;14.87;9.90;;;;;;;;;;5072126;28;21116;-74
2022/12/11 17:01:11;;;;;;;13.77;8.37;;;;;;;;;;5083549;28;20632;-74
2022/12/11 17:04:15;;;;;;;13.67;9.20;;;;;;;;;;5072496;28;20944;-74
2022/12/11 17:07:20;;;;;;;13.30;9.43;;;;;;;;;;5072166;28;20529;-74
2022/12/11 17:10:24;;;;;;;17.00;10.53;;;;;;;;;;5083486;28;20537;-74
2022/12/11 17:13:28;;;;;;;20.73;14.30;;;;;;;;;;5083520;28;20540;-73
2022/12/11 17:16:33;;;;;;;37.83;25.27;;;;;;;;;;5096066;28;21172;-74
2022/12/11 17:19:37;;;;;;;42.90;25.03;;;;;;;;;;5071725;28;20595;-74
2022/12/11 17:22:41;;;;;;;26.20;12.80;;;;;;;;;;5060140;28;20623;-73
2022/12/11 17:25:45;;;;;;;19.40;11.93;;;;;;;;;;5095640;28;20536;-74
2022/12/11 17:28:49;;;;;;;16.57;11.67;;;;;;;;;;5071923;28;20540;-72
2022/12/11 17:31:53;;;;;;;15.00;10.13;;;;;;;;;;5082818;28;20627;-73
2022/12/11 17:34:57;;;;;;;18.50;10.70;;;;;;;;;;5095279;28;20557;-73
2022/12/11 17:38:01;;;;;;;22.90;11.77;;;;;;;;;;5094807;28;21093;-74
2022/12/11 17:41:08;;;;;;;18.40;11.17;;;;;;;;;;5083210;28;20624;-73
2022/12/11 17:44:12;;;;;;;20.77;13.23;;;;;;;;;;5082693;28;20616;-74
2022/12/11 17:47:16;;;;;;;27.63;16.63;;;;;;;;;;5095443;28;20545;-74
2022/12/11 17:50:21;;;;;;;21.00;13.27;;;;;;;;;;5095364;28;20884;-74
2022/12/11 17:53:25;;;;;;;25.83;16.17;;;;;;;;;;5095033;28;20560;-74
2022/12/11 17:56:29;;;;;;;26.50;16.43;;;;;;;;;;5082349;28;21185;-73
2022/12/11 17:59:33;;;;;;;18.53;11.47;;;;;;;;;;5070918;28;20544;-74
2022/12/11 18:02:36;;;;;;;18.77;11.13;;;;;;;;;;5094633;28;20627;-74
2022/12/11 18:05:48;;;;;;;18.23;10.87;;;;;;;;;;5094648;28;20628;-74
2022/12/11 18:08:53;;;;;;;16.93;10.63;;;;;;;;;;5082417;28;20557;-74
2022/12/11 18:11:57;;;;;;;17.13;10.50;;;;;;;;;;5094860;28;20647;-74
2022/12/11 18:15:01;;;;;;;18.13;11.43;;;;;;;;;;5082523;28;20568;-74
2022/12/11 18:18:07;;;;;;;18.47;11.00;;;;;;;;;;5081833;28;21130;-74
2022/12/11 18:21:19;;;;;;;25.43;16.93;;;;;;;;;;5081595;28;20937;-73
2022/12/11 18:24:30;;;;;;;46.23;28.07;;;;;;;;;;5081892;28;20648;-74
2022/12/11 18:27:34;;;;;;;49.03;28.10;;;;;;;;;;5081848;28;20549;-74
2022/12/11 18:30:39;;;;;;;37.87;22.97;;;;;;;;;;5081637;28;20556;-74